Hobe Sound, FL

3:41 AM EST on February 09, 2016 (GMT -0500)
The FALLS at Lost Lakes | | Change Station
CLOSE
Current Station
Personal Weather Station
Location: Hobe Sound, FL
Elevation: 39 ft
Nearby Weather Stations

Elev 39 ft 27.11 °N, 80.19 °W | Updated 6 seconds ago

Mostly Cloudy
Mostly Cloudy
60.8 °F
Feels Like 60.8 °F
N
2.0
Wind Variable Wind from South
Gusts 7.0 mph

Today
High -- | Low -- °F
--% Chance of Precip.
Yesterday
High -- | Low -- °F
Precip. -- in
Pressure 29.90 in
Visibility 10.0 miles
Clouds Mostly Cloudy 4800 ft
Overcast 7000 ft
Dew Point 57 °F
Humidity 91%
Rainfall 0.00 in
Snow Depth Not available.
7:02 AM 6:08 PM
New Moon, 1% visible
METAR KFPR 090753Z AUTO 27015G21KT 10SM BKN048 OVC070 15/12 A2990 RMK AO2 SLP123 T01500122 TSNO
Pressure 29.90 in
Visibility 10.0 miles
Clouds Mostly Cloudy 4800 ft
Overcast 7000 ft
Dew Point 57 °F
Humidity 91%
Rainfall 0.00 in
Snow Depth Not available.
7:02 AM 6:08 PM
New Moon, 1% visible
METAR KFPR 090753Z AUTO 27015G21KT 10SM BKN048 OVC070 15/12 A2990 RMK AO2 SLP123 T01500122 TSNO

10-Day Weather Forecast

Almanac

Astronomy

Feb. 09, 2016 Rise Set
Actual Time
Civil Twilight
Nautical Twilight
Astronomical Twilight
Moon
Length of Visible Light
Length of Day
Tomorrow will be .
, % of the Moon is Illuminated

Today's Extremes

State Highs State Lows

Community

WunderPhotos

Upload Photos

1,891,571 photos uploaded!

WunderBlog® & News

Nearby

Air Quality

  Air Quality AQ Index Pollutant
Not available.

Snow Depth

Station Depth Elevation

Earthquake Activity

City Distance Mag. Time & Date
Minimum magnitude displayed is 2.5.

Coastal Water Temperatures

Place Temperature

Stations

Nearby Weather Stations

Station Location Temp. Windchill Dew Point Humidity Wind Precip. Elev Updated Type
                   

Watches & Warnings

There are currently no watches in effect.